createdAt,value
2017-09-02T00:01:23.845Z,46.75
2017-09-02T00:03:51.365Z,47.36
2017-09-02T00:06:18.918Z,47.61
2017-09-02T00:08:46.488Z,47.70
2017-09-02T00:11:14.024Z,47.79
2017-09-02T00:13:41.583Z,48.00
2017-09-02T00:16:09.457Z,47.56
2017-09-02T00:18:38.967Z,48.22
2017-09-02T00:21:06.705Z,48.14
2017-09-02T00:23:34.279Z,48.50
2017-09-02T00:26:01.821Z,48.91
2017-09-02T00:28:29.352Z,48.89
2017-09-02T00:30:57.741Z,48.79
2017-09-02T00:33:25.285Z,49.09
2017-09-02T00:35:52.904Z,49.16
2017-09-02T00:38:20.531Z,49.26
2017-09-02T00:40:48.090Z,48.73
2017-09-02T00:43:16.060Z,49.70
2017-09-02T00:45:43.931Z,49.73
2017-09-02T00:48:11.535Z,50.11
2017-09-02T00:50:39.308Z,50.04
2017-09-02T00:53:07.064Z,50.09
2017-09-02T00:55:34.652Z,50.37
2017-09-02T00:58:02.475Z,50.30
2017-09-02T01:00:30.055Z,50.51
2017-09-02T01:02:57.593Z,50.50
2017-09-02T01:05:25.149Z,49.44
2017-09-02T01:07:52.945Z,49.93
2017-09-02T01:10:20.491Z,50.11
2017-09-02T01:12:48.041Z,50.04
2017-09-02T01:15:15.613Z,49.95
2017-09-02T01:17:43.121Z,50.41
2017-09-02T01:20:10.650Z,50.33
2017-09-02T01:22:38.195Z,50.61
2017-09-02T01:25:05.724Z,50.34
2017-09-02T01:27:33.272Z,50.31
2017-09-02T01:30:00.855Z,50.67
2017-09-02T01:32:28.482Z,50.73
2017-09-02T01:34:56.006Z,50.89
2017-09-02T01:37:23.560Z,50.94
2017-09-02T01:39:51.151Z,50.72
2017-09-02T01:42:18.676Z,50.92
2017-09-02T01:44:47.020Z,50.73
2017-09-02T01:47:14.586Z,50.49
2017-09-02T01:49:42.094Z,50.42
2017-09-02T01:52:09.612Z,50.58
2017-09-02T01:54:37.377Z,50.43
2017-09-02T01:57:04.900Z,50.69
2017-09-02T01:59:32.959Z,50.77
2017-09-02T02:02:00.520Z,50.85
2017-09-02T02:04:28.066Z,50.64
2017-09-02T02:06:55.605Z,51.13
2017-09-02T02:09:23.155Z,51.62
2017-09-02T02:11:50.911Z,51.21
2017-09-02T02:14:18.447Z,51.03
2017-09-02T02:16:46.240Z,50.86
2017-09-02T02:19:13.797Z,51.25
2017-09-02T02:21:41.315Z,51.13
2017-09-02T02:24:09.206Z,51.20
2017-09-02T02:26:36.713Z,51.26
2017-09-02T02:29:04.239Z,50.82
2017-09-02T02:31:31.844Z,51.42
2017-09-02T02:33:59.372Z,52.01
2017-09-02T02:36:26.898Z,51.96
2017-09-02T02:38:54.669Z,51.72
2017-09-02T02:41:22.646Z,51.85
2017-09-02T02:43:50.167Z,51.93
2017-09-02T02:46:17.817Z,52.27
2017-09-02T02:48:45.348Z,52.59
2017-09-02T02:51:12.887Z,52.71
2017-09-02T02:53:40.446Z,52.70
2017-09-02T02:56:07.990Z,52.42
2017-09-02T02:58:35.891Z,52.46
2017-09-02T03:01:03.513Z,52.14
2017-09-02T03:03:31.061Z,52.22
2017-09-02T03:05:58.598Z,52.63
2017-09-02T03:08:26.151Z,53.08
2017-09-02T03:10:53.677Z,53.04
2017-09-02T03:13:21.220Z,52.84
2017-09-02T03:15:48.987Z,52.73
2017-09-02T03:18:16.511Z,52.41
2017-09-02T03:20:44.021Z,52.68
2017-09-02T03:23:11.588Z,52.20
2017-09-02T03:25:39.175Z,52.62
2017-09-02T03:28:06.721Z,52.64
2017-09-02T03:30:34.513Z,53.24
2017-09-02T03:33:02.184Z,53.17
2017-09-02T03:35:29.818Z,53.17
2017-09-02T03:37:57.539Z,52.99
2017-09-02T03:40:25.168Z,52.81
2017-09-02T03:42:52.955Z,52.48
2017-09-02T03:45:20.533Z,53.05
2017-09-02T03:47:48.044Z,52.77
2017-09-02T03:50:15.603Z,52.46
2017-09-02T03:52:43.154Z,52.51
2017-09-02T03:55:10.692Z,52.92
2017-09-02T03:57:38.220Z,53.41
2017-09-02T04:00:06.936Z,53.63
2017-09-02T04:02:34.465Z,53.77
2017-09-02T04:05:02.028Z,53.76
2017-09-02T04:07:29.663Z,53.68
2017-09-02T04:09:57.456Z,54.45
2017-09-02T04:12:25.002Z,54.67
2017-09-02T04:14:52.637Z,54.65
2017-09-02T04:17:20.203Z,54.43
2017-09-02T04:19:47.756Z,53.86
2017-09-02T04:22:15.352Z,53.76
2017-09-02T04:24:42.878Z,53.85
2017-09-02T04:27:10.687Z,53.42
2017-09-02T04:29:38.279Z,53.20
2017-09-02T04:32:05.832Z,52.70
2017-09-02T04:34:33.352Z,51.84
2017-09-02T04:37:01.111Z,51.63
2017-09-02T04:39:28.661Z,51.31
2017-09-02T04:41:56.199Z,50.90
2017-09-02T04:44:23.713Z,50.27
2017-09-02T04:46:51.295Z,48.99
2017-09-02T04:49:18.836Z,47.96
2017-09-02T04:51:46.370Z,47.21
2017-09-02T04:54:13.904Z,46.31
2017-09-02T04:56:41.415Z,45.57
2017-09-02T04:59:09.314Z,44.50
2017-09-02T05:01:37.085Z,46.59
2017-09-02T05:04:04.629Z,46.95
2017-09-02T05:06:32.392Z,48.49
2017-09-02T05:08:59.967Z,48.01
2017-09-02T05:11:27.501Z,47.20
2017-09-02T05:13:55.064Z,46.06
2017-09-02T05:16:23.345Z,44.70
2017-09-02T05:18:50.861Z,44.44
2017-09-02T05:21:18.459Z,43.80
2017-09-02T05:23:46.006Z,44.48
2017-09-02T05:26:13.538Z,43.73
2017-09-02T05:28:41.045Z,45.67
2017-09-02T05:31:08.621Z,44.63
2017-09-02T05:33:36.148Z,43.97
2017-09-02T05:36:03.958Z,42.63
2017-09-02T05:38:31.826Z,43.42
2017-09-02T05:40:59.451Z,42.72
2017-09-02T05:43:27.215Z,42.60
2017-09-02T05:45:54.825Z,42.50
2017-09-02T05:48:22.703Z,41.25
2017-09-02T05:50:50.298Z,40.27
2017-09-02T05:53:17.904Z,39.77
2017-09-02T05:55:45.555Z,39.00
2017-09-02T05:58:13.213Z,38.79
2017-09-02T06:00:41.750Z,39.59
2017-09-02T06:03:10.168Z,38.47
2017-09-02T06:05:38.584Z,38.61
2017-09-02T06:10:56.076Z,38.17
2017-09-02T06:13:33.534Z,37.92
2017-09-02T06:16:05.691Z,37.11
2017-09-02T06:18:33.360Z,37.22
2017-09-02T06:24:20.970Z,34.65
2017-09-02T06:26:50.721Z,34.76
2017-09-02T06:29:18.970Z,34.23
2017-09-02T06:31:47.224Z,35.11
2017-09-02T06:34:14.834Z,34.17
2017-09-02T06:36:42.440Z,34.66
2017-09-02T06:39:10.099Z,32.53
2017-09-02T06:41:37.701Z,32.32
2017-09-02T06:44:05.659Z,32.16
2017-09-02T06:46:33.301Z,31.90
2017-09-02T06:49:01.625Z,32.02
2017-09-02T06:51:29.215Z,31.46
2017-09-02T06:53:56.809Z,31.25
2017-09-02T06:56:24.378Z,30.67
2017-09-02T06:58:52.039Z,31.91
2017-09-02T07:01:20.115Z,31.96
2017-09-02T07:03:47.744Z,30.49
2017-09-02T07:06:15.313Z,31.19
2017-09-02T07:08:44.304Z,28.95
2017-09-02T07:11:11.873Z,30.76
2017-09-02T07:13:39.841Z,30.72
2017-09-02T07:16:08.525Z,29.48
2017-09-02T07:18:36.126Z,29.37
2017-09-02T07:21:03.809Z,28.57
2017-09-02T07:23:32.009Z,28.67
2017-09-02T07:26:00.396Z,27.90
2017-09-02T07:28:28.086Z,29.30
2017-09-02T07:30:55.996Z,29.84
2017-09-02T07:33:25.156Z,29.14
2017-09-02T07:35:52.926Z,27.96
2017-09-02T07:38:22.831Z,29.23
2017-09-02T07:40:51.067Z,29.63
2017-09-02T07:43:18.781Z,29.34
2017-09-02T07:45:46.840Z,27.75
2017-09-02T07:48:15.881Z,29.21
2017-09-02T07:50:43.577Z,29.39
2017-09-02T07:53:11.779Z,28.73
2017-09-02T07:55:39.964Z,27.73
2017-09-02T07:58:07.706Z,26.91
2017-09-02T08:00:38.604Z,26.78
2017-09-02T08:03:07.835Z,26.17
2017-09-02T08:05:37.621Z,27.09
2017-09-02T08:08:06.868Z,26.89
2017-09-02T08:10:35.292Z,26.79
2017-09-02T08:13:03.050Z,26.84
2017-09-02T08:15:30.712Z,26.71
2017-09-02T08:17:58.948Z,26.96
2017-09-02T08:20:26.588Z,26.03
2017-09-02T08:22:54.989Z,25.64
2017-09-02T08:25:22.820Z,25.63
2017-09-02T08:27:50.454Z,25.62
2017-09-02T08:30:18.434Z,25.76
2017-09-02T08:32:46.110Z,25.44
2017-09-02T08:35:14.398Z,24.58
2017-09-02T08:37:42.280Z,26.92
2017-09-02T08:40:10.133Z,29.12
2017-09-02T08:42:38.460Z,29.59
2017-09-02T08:45:06.116Z,28.31
2017-09-02T08:47:33.785Z,28.70
2017-09-02T08:50:03.063Z,27.88
2017-09-02T08:52:30.859Z,26.83
2017-09-02T08:54:58.771Z,28.40
2017-09-02T08:57:26.757Z,27.25
2017-09-02T08:59:54.551Z,28.10
2017-09-02T09:02:22.395Z,27.96
2017-09-02T09:04:49.963Z,27.39
2017-09-02T09:07:17.714Z,28.43
2017-09-02T09:09:45.359Z,28.60
2017-09-02T09:12:13.018Z,27.74
2017-09-02T09:14:40.706Z,27.81
2017-09-02T09:17:08.369Z,26.94
2017-09-02T09:19:35.902Z,29.08
2017-09-02T09:22:03.448Z,28.22
2017-09-02T09:24:31.357Z,27.72
2017-09-02T09:26:58.992Z,28.63
2017-09-02T09:29:26.585Z,29.17
2017-09-02T09:31:54.189Z,27.90
2017-09-02T09:34:21.832Z,27.42
2017-09-02T09:36:49.367Z,26.16
2017-09-02T09:39:17.309Z,26.81
2017-09-02T09:41:44.901Z,24.27
2017-09-02T09:44:12.455Z,26.14
2017-09-02T09:46:40.042Z,25.66
2017-09-02T09:49:07.816Z,27.33
2017-09-02T09:51:35.418Z,26.17
2017-09-02T09:54:03.063Z,27.55
2017-09-02T09:56:30.597Z,27.15
2017-09-02T09:59:03.115Z,26.04
2017-09-02T10:01:34.673Z,25.38
2017-09-02T10:04:04.149Z,25.91
2017-09-02T10:06:34.293Z,26.90
2017-09-02T10:09:06.733Z,25.88
2017-09-02T10:11:34.530Z,26.32
2017-09-02T10:14:07.147Z,24.97
2017-09-02T10:16:35.653Z,24.90
2017-09-02T10:19:03.283Z,24.50
2017-09-02T10:21:34.745Z,24.95
2017-09-02T10:24:02.543Z,25.55
2017-09-02T10:26:30.841Z,26.03
2017-09-02T10:28:59.698Z,24.93
2017-09-02T10:31:27.264Z,24.67
2017-09-02T10:33:54.861Z,24.56
2017-09-02T10:36:22.726Z,24.04
2017-09-02T10:38:50.897Z,24.99
2017-09-02T10:41:18.524Z,24.48
2017-09-02T10:43:46.053Z,23.41
2017-09-02T10:46:13.597Z,24.22
2017-09-02T10:48:41.190Z,24.81
2017-09-02T10:51:08.764Z,24.28
2017-09-02T10:53:36.936Z,23.02
2017-09-02T10:56:04.461Z,23.19
2017-09-02T10:58:32.965Z,23.30
2017-09-02T11:01:00.531Z,22.25
2017-09-02T11:03:28.092Z,22.88
2017-09-02T11:05:55.648Z,23.39
2017-09-02T11:08:23.750Z,22.96
2017-09-02T11:10:51.353Z,22.99
2017-09-02T11:13:19.055Z,22.07
2017-09-02T11:15:46.798Z,22.23
2017-09-02T11:18:14.318Z,22.37
2017-09-02T11:20:41.838Z,22.38
2017-09-02T11:23:09.408Z,23.34
2017-09-02T11:25:36.940Z,23.16
2017-09-02T11:28:04.686Z,22.33
2017-09-02T11:30:32.261Z,22.64
2017-09-02T11:32:59.856Z,22.38
2017-09-02T11:35:27.401Z,22.73
2017-09-02T11:37:54.963Z,23.75
2017-09-02T11:40:22.628Z,23.77
2017-09-02T11:42:50.459Z,23.21
2017-09-02T11:45:18.623Z,23.50
2017-09-02T11:47:46.219Z,23.70
2017-09-02T11:50:13.969Z,23.64
2017-09-02T11:52:41.797Z,23.73
2017-09-02T11:55:09.500Z,23.44
2017-09-02T11:57:37.032Z,23.57
2017-09-02T12:00:07.584Z,23.63
2017-09-02T12:02:35.120Z,23.81
2017-09-02T12:05:02.916Z,23.29
2017-09-02T12:07:30.542Z,23.22
2017-09-02T12:09:58.063Z,23.97
2017-09-02T12:12:25.609Z,23.03
2017-09-02T12:14:53.696Z,23.80
2017-09-02T12:17:21.235Z,23.92
2017-09-02T12:19:49.023Z,23.33
2017-09-02T12:22:17.599Z,23.50
2017-09-02T12:24:45.184Z,23.45
2017-09-02T12:27:12.913Z,22.92
2017-09-02T12:29:40.482Z,23.19
2017-09-02T12:32:08.040Z,23.14
2017-09-02T12:34:35.638Z,22.96
2017-09-02T12:37:03.416Z,22.45
2017-09-02T12:39:31.037Z,22.40
2017-09-02T12:41:58.557Z,22.15
2017-09-02T12:44:26.084Z,21.91
2017-09-02T12:46:53.629Z,21.82
2017-09-02T12:49:21.423Z,22.32
2017-09-02T12:51:48.991Z,21.88
2017-09-02T12:54:16.559Z,21.77
2017-09-02T12:56:44.169Z,22.01
2017-09-02T12:59:11.701Z,21.76
2017-09-02T13:01:39.665Z,21.94
2017-09-02T13:04:07.252Z,22.63
2017-09-02T13:06:35.038Z,22.32
2017-09-02T13:09:02.624Z,22.72
2017-09-02T13:11:30.207Z,22.29
2017-09-02T13:13:57.748Z,22.61
2017-09-02T13:16:25.374Z,22.75
2017-09-02T13:18:52.893Z,22.56
2017-09-02T13:21:20.479Z,22.66
2017-09-02T13:23:48.079Z,22.68
2017-09-02T13:26:15.592Z,22.76
2017-09-02T13:28:43.117Z,23.14
2017-09-02T13:31:10.689Z,23.26
2017-09-02T13:33:38.240Z,23.59
2017-09-02T13:36:05.791Z,24.10
2017-09-02T13:38:33.430Z,23.74
2017-09-02T13:41:00.950Z,22.78
2017-09-02T13:43:28.462Z,23.51
2017-09-02T13:45:56.057Z,23.90
2017-09-02T13:48:23.592Z,23.08
2017-09-02T13:50:51.147Z,23.35
2017-09-02T13:53:18.748Z,23.01
2017-09-02T13:55:46.276Z,23.24
2017-09-02T13:58:13.801Z,23.37
2017-09-02T14:00:41.341Z,23.79
2017-09-02T14:03:08.873Z,24.13
2017-09-02T14:05:36.417Z,24.50
2017-09-02T14:08:04.007Z,23.78
2017-09-02T14:10:32.275Z,24.81
2017-09-02T14:12:59.831Z,24.22
2017-09-02T14:15:27.636Z,24.08
2017-09-02T14:17:55.439Z,23.84
2017-09-02T14:20:23.011Z,24.81
2017-09-02T14:22:50.570Z,25.06
2017-09-02T14:25:18.169Z,24.37
2017-09-02T14:27:45.949Z,24.82
2017-09-02T14:30:13.598Z,25.20
2017-09-02T14:32:41.202Z,24.80
2017-09-02T14:35:09.014Z,24.92
2017-09-02T14:37:36.603Z,24.63
2017-09-02T14:40:04.121Z,24.33
2017-09-02T14:42:32.038Z,24.67
2017-09-02T14:44:59.620Z,24.63
2017-09-02T14:47:27.420Z,25.00
2017-09-02T14:49:55.027Z,24.84
2017-09-02T14:52:22.601Z,25.32
2017-09-02T14:54:50.366Z,26.27
2017-09-02T14:57:17.898Z,26.48
2017-09-02T14:59:45.668Z,26.43
2017-09-02T15:02:13.215Z,26.89
2017-09-02T15:04:40.956Z,27.40
2017-09-02T15:07:08.469Z,26.74
2017-09-02T15:09:36.054Z,26.50
2017-09-02T15:12:04.240Z,27.13
2017-09-02T15:14:31.774Z,27.37
2017-09-02T15:16:59.364Z,27.28
2017-09-02T15:19:26.926Z,27.41
2017-09-02T15:21:54.535Z,27.92
2017-09-02T15:24:22.380Z,28.03
2017-09-02T15:26:49.998Z,28.68
2017-09-02T15:29:17.647Z,28.54
2017-09-02T15:31:45.470Z,28.91
2017-09-02T15:34:13.017Z,28.67
2017-09-02T15:36:40.630Z,28.76
2017-09-02T15:39:08.231Z,28.77
2017-09-02T15:41:35.785Z,28.90
2017-09-02T15:44:03.351Z,29.34
2017-09-02T15:46:30.924Z,29.64
2017-09-02T15:48:58.508Z,29.36
2017-09-02T15:51:26.301Z,29.31
2017-09-02T15:53:53.885Z,29.27
2017-09-02T15:56:21.427Z,29.60
2017-09-02T15:58:48.989Z,30.40
2017-09-02T16:01:16.847Z,31.18
2017-09-02T16:03:44.404Z,31.47
2017-09-02T16:06:12.004Z,31.70
2017-09-02T16:08:39.665Z,32.08
2017-09-02T16:11:07.473Z,32.20
2017-09-02T16:13:35.043Z,32.37
2017-09-02T16:16:03.545Z,32.46
2017-09-02T16:18:31.371Z,33.05
2017-09-02T16:20:59.175Z,32.67
2017-09-02T16:23:26.751Z,32.75
2017-09-02T16:25:54.296Z,32.57
2017-09-02T16:28:21.891Z,32.71
2017-09-02T16:30:49.469Z,32.93
2017-09-02T16:33:17.271Z,33.03
2017-09-02T16:35:45.032Z,32.61
2017-09-02T16:38:12.640Z,33.02
2017-09-02T16:40:40.219Z,33.01
2017-09-02T16:43:07.993Z,33.20
2017-09-02T16:45:35.760Z,33.77
2017-09-02T16:48:03.355Z,33.64
2017-09-02T16:50:30.920Z,33.88
2017-09-02T16:52:58.504Z,34.27
2017-09-02T16:55:26.124Z,34.69
2017-09-02T16:57:53.902Z,35.04
2017-09-02T17:00:21.658Z,35.08
2017-09-02T17:02:49.252Z,34.66
2017-09-02T17:05:17.036Z,34.09
2017-09-02T17:07:44.631Z,33.72
2017-09-02T17:10:12.204Z,33.25
2017-09-02T17:12:39.968Z,33.64
2017-09-02T17:15:07.601Z,33.54
2017-09-02T17:17:35.424Z,33.76
2017-09-02T17:20:03.049Z,34.57
2017-09-02T17:22:30.637Z,34.07
2017-09-02T17:24:58.276Z,34.37
2017-09-02T17:27:25.835Z,34.47
2017-09-02T17:29:53.447Z,34.84
2017-09-02T17:32:21.041Z,34.36
2017-09-02T17:34:48.613Z,34.42
2017-09-02T17:37:16.183Z,34.46
2017-09-02T17:39:43.785Z,34.60
2017-09-02T17:42:11.324Z,34.95
2017-09-02T17:44:38.894Z,35.44
2017-09-02T17:47:06.456Z,35.23
2017-09-02T17:49:34.393Z,35.22
2017-09-02T17:52:03.195Z,35.41
2017-09-02T17:54:30.891Z,36.06
2017-09-02T17:56:58.786Z,36.61
2017-09-02T17:59:26.601Z,36.59
2017-09-02T18:01:54.257Z,36.63
2017-09-02T18:04:21.826Z,36.31
2017-09-02T18:06:49.438Z,36.22
2017-09-02T18:09:17.219Z,36.40
2017-09-02T18:11:44.989Z,36.09
2017-09-02T18:14:12.582Z,36.45
2017-09-02T18:16:40.369Z,36.54
2017-09-02T18:19:07.911Z,36.91
2017-09-02T18:21:35.540Z,37.14
2017-09-02T18:24:03.308Z,37.19
2017-09-02T18:26:30.930Z,37.22
2017-09-02T18:28:58.682Z,37.49
2017-09-02T18:31:26.296Z,37.99
2017-09-02T18:33:53.829Z,38.08
2017-09-02T18:36:21.336Z,38.13
2017-09-02T18:38:48.931Z,38.52
2017-09-02T18:41:16.498Z,38.76
2017-09-02T18:43:44.023Z,38.88
2017-09-02T18:46:11.910Z,39.27
2017-09-02T18:48:39.470Z,39.77
2017-09-02T18:51:07.065Z,40.02
2017-09-02T18:53:34.741Z,40.00
2017-09-02T18:56:02.363Z,40.38
2017-09-02T18:58:30.142Z,40.82
2017-09-02T19:00:57.739Z,41.18
2017-09-02T19:03:25.329Z,40.72
2017-09-02T19:05:52.875Z,39.26
2017-09-02T19:08:20.454Z,39.59
2017-09-02T19:10:48.020Z,38.62
2017-09-02T19:13:15.579Z,38.94
2017-09-02T19:15:43.166Z,38.59
2017-09-02T19:24:22.186Z,37.68
2017-09-02T19:26:49.785Z,37.45
2017-09-02T19:29:17.384Z,37.31
2017-09-02T19:31:45.713Z,36.63
2017-09-02T19:34:13.328Z,36.77
2017-09-02T19:36:41.890Z,36.56
2017-09-02T19:39:09.522Z,36.11
2017-09-02T19:41:37.057Z,36.21
2017-09-02T19:44:04.630Z,35.96
2017-09-02T19:46:32.365Z,36.30
2017-09-02T19:49:00.894Z,36.06
2017-09-02T19:51:28.445Z,35.91
2017-09-02T19:53:56.075Z,36.01
2017-09-02T19:56:23.685Z,35.83
2017-09-02T19:58:51.272Z,35.66
2017-09-02T20:01:18.849Z,35.70
2017-09-02T20:03:46.387Z,35.81
2017-09-02T20:06:13.925Z,35.80
2017-09-02T20:08:41.548Z,35.88
2017-09-02T20:11:09.155Z,35.85
2017-09-02T20:13:36.720Z,36.03
2017-09-02T20:16:04.276Z,36.38
2017-09-02T20:18:31.885Z,36.32
2017-09-02T20:20:59.638Z,36.93
2017-09-02T20:23:27.722Z,37.21
2017-09-02T20:25:56.159Z,37.35
2017-09-02T20:28:24.637Z,37.23
2017-09-02T20:30:52.750Z,37.32
2017-09-02T20:33:20.517Z,37.19
2017-09-02T20:35:48.173Z,36.93
2017-09-02T20:38:16.688Z,36.59
2017-09-02T20:40:44.944Z,36.67
2017-09-02T20:43:12.733Z,36.58
2017-09-02T20:45:41.331Z,36.56
2017-09-02T20:48:09.658Z,36.69
2017-09-02T20:50:37.832Z,36.56
2017-09-02T20:53:06.738Z,36.50
2017-09-02T20:55:34.595Z,36.77
2017-09-02T20:58:02.759Z,36.98
2017-09-02T21:00:32.030Z,37.03
2017-09-02T21:02:59.742Z,37.09
2017-09-02T21:05:28.159Z,37.60
2017-09-02T21:07:57.210Z,37.33
2017-09-02T21:10:25.949Z,37.20
2017-09-02T21:12:54.579Z,37.31
2017-09-02T21:15:23.418Z,37.34
2017-09-02T21:17:51.278Z,37.27
2017-09-02T21:20:19.860Z,36.92
2017-09-02T21:22:48.279Z,37.22
2017-09-02T21:25:16.068Z,37.28
2017-09-02T21:27:45.522Z,37.18
2017-09-02T21:30:18.718Z,37.43
2017-09-02T21:32:48.319Z,37.91
2017-09-02T21:35:17.941Z,37.79
2017-09-02T21:37:47.243Z,37.99
2017-09-02T21:40:17.130Z,37.77
2017-09-02T21:42:47.182Z,37.77
2017-09-02T21:45:17.199Z,37.89
2017-09-02T21:47:48.067Z,37.97
2017-09-02T21:50:17.542Z,37.99
2017-09-02T21:52:46.590Z,38.05
2017-09-02T21:55:17.490Z,37.87
2017-09-02T21:57:46.810Z,37.96
2017-09-02T22:00:15.591Z,38.22
2017-09-02T22:02:45.355Z,38.07
2017-09-02T22:05:14.496Z,38.28
2017-09-02T22:07:43.769Z,38.14
2017-09-02T22:10:12.488Z,38.26
2017-09-02T22:12:41.350Z,37.90
2017-09-02T22:15:09.027Z,37.94
2017-09-02T22:17:36.752Z,38.62
2017-09-02T22:20:04.459Z,38.75
2017-09-02T22:22:32.332Z,38.86
2017-09-02T22:25:05.717Z,38.85
2017-09-02T22:27:37.996Z,39.22
2017-09-02T22:30:08.808Z,39.32
2017-09-02T22:32:37.307Z,39.55
2017-09-02T22:35:06.808Z,39.74
2017-09-02T22:37:35.360Z,39.70
2017-09-02T22:40:03.193Z,39.86
2017-09-02T22:42:31.121Z,40.28
2017-09-02T22:44:58.950Z,40.07
2017-09-02T22:47:26.659Z,40.21
2017-09-02T22:49:54.395Z,39.79
2017-09-02T22:52:22.480Z,40.03
2017-09-02T22:54:50.164Z,39.94
2017-09-02T22:57:17.691Z,40.31
2017-09-02T22:59:45.285Z,40.31
2017-09-02T23:02:12.898Z,40.31
2017-09-02T23:04:40.439Z,40.62
2017-09-02T23:07:07.987Z,40.59
2017-09-02T23:09:35.596Z,40.30
2017-09-02T23:12:03.354Z,40.22
2017-09-02T23:14:30.915Z,40.40
2017-09-02T23:16:58.555Z,40.22
2017-09-02T23:19:26.164Z,40.84
2017-09-02T23:21:53.826Z,40.72
2017-09-02T23:24:21.431Z,40.76
2017-09-02T23:26:49.208Z,40.57
2017-09-02T23:29:16.757Z,40.84
2017-09-02T23:31:44.405Z,40.75
2017-09-02T23:34:11.947Z,41.00
2017-09-02T23:36:39.478Z,41.17
2017-09-02T23:39:07.061Z,41.04
2017-09-02T23:41:34.592Z,40.92
2017-09-02T23:44:02.151Z,40.98
2017-09-02T23:46:29.727Z,41.55
2017-09-02T23:48:57.239Z,41.88
2017-09-02T23:51:29.038Z,42.18
2017-09-02T23:53:56.593Z,42.18
2017-09-02T23:56:24.978Z,41.61
2017-09-02T23:58:52.494Z,41.45
